sensor_id;sensor_type;location;lat;lon;timestamp;P1;durP1;ratioP1;P2;durP2;ratioP2
28796;SDS011;24974;54.444;18.560;2023-07-02T00:00:51;10.30;;;6.80;;
28796;SDS011;24974;54.444;18.560;2023-07-02T00:03:22;9.75;;;6.82;;
28796;SDS011;24974;54.444;18.560;2023-07-02T00:05:53;9.38;;;6.72;;
28796;SDS011;24974;54.444;18.560;2023-07-02T00:08:24;9.00;;;6.30;;
28796;SDS011;24974;54.444;18.560;2023-07-02T00:10:55;8.65;;;6.47;;
28796;SDS011;24974;54.444;18.560;2023-07-02T00:13:26;9.40;;;6.60;;
28796;SDS011;24974;54.444;18.560;2023-07-02T00:15:57;7.78;;;6.57;;
28796;SDS011;24974;54.444;18.560;2023-07-02T00:18:29;10.70;;;7.15;;
28796;SDS011;24974;54.444;18.560;2023-07-02T00:21:05;12.20;;;7.18;;
28796;SDS011;24974;54.444;18.560;2023-07-02T00:23:36;9.75;;;7.53;;
28796;SDS011;24974;54.444;18.560;2023-07-02T00:26:06;11.93;;;7.72;;
28796;SDS011;24974;54.444;18.560;2023-07-02T00:28:37;11.20;;;7.80;;
28796;SDS011;24974;54.444;18.560;2023-07-02T00:31:08;9.88;;;8.13;;
28796;SDS011;24974;54.444;18.560;2023-07-02T00:33:39;12.80;;;7.97;;
28796;SDS011;24974;54.444;18.560;2023-07-02T00:36:10;13.15;;;8.50;;
28796;SDS011;24974;54.444;18.560;2023-07-02T00:38:45;13.32;;;8.52;;
28796;SDS011;24974;54.444;18.560;2023-07-02T00:41:17;12.63;;;8.50;;
28796;SDS011;24974;54.444;18.560;2023-07-02T00:43:48;11.88;;;8.70;;
28796;SDS011;24974;54.444;18.560;2023-07-02T00:46:19;12.15;;;9.13;;
28796;SDS011;24974;54.444;18.560;2023-07-02T00:48:52;11.45;;;8.80;;
28796;SDS011;24974;54.444;18.560;2023-07-02T00:51:24;12.25;;;9.88;;
28796;SDS011;24974;54.444;18.560;2023-07-02T00:53:57;11.30;;;10.15;;
28796;SDS011;24974;54.444;18.560;2023-07-02T00:56:28;11.85;;;9.07;;
28796;SDS011;24974;54.444;18.560;2023-07-02T00:58:59;12.20;;;10.13;;
28796;SDS011;24974;54.444;18.560;2023-07-02T01:01:31;11.55;;;9.35;;
28796;SDS011;24974;54.444;18.560;2023-07-02T01:04:04;15.95;;;10.68;;
28796;SDS011;24974;54.444;18.560;2023-07-02T01:06:38;14.02;;;10.23;;
28796;SDS011;24974;54.444;18.560;2023-07-02T01:09:11;11.90;;;10.32;;
28796;SDS011;24974;54.444;18.560;2023-07-02T01:11:44;12.30;;;9.57;;
28796;SDS011;24974;54.444;18.560;2023-07-02T01:16:57;15.70;;;10.23;;
28796;SDS011;24974;54.444;18.560;2023-07-02T01:19:34;17.33;;;10.63;;
28796;SDS011;24974;54.444;18.560;2023-07-02T01:22:24;14.18;;;10.63;;
28796;SDS011;24974;54.444;18.560;2023-07-02T01:24:56;15.25;;;11.45;;
28796;SDS011;24974;54.444;18.560;2023-07-02T01:27:28;12.80;;;10.73;;
28796;SDS011;24974;54.444;18.560;2023-07-02T01:29:59;15.23;;;10.68;;
28796;SDS011;24974;54.444;18.560;2023-07-02T01:32:30;12.43;;;9.30;;
28796;SDS011;24974;54.444;18.560;2023-07-02T01:35:01;11.93;;;10.15;;
28796;SDS011;24974;54.444;18.560;2023-07-02T01:37:32;16.25;;;10.38;;
28796;SDS011;24974;54.444;18.560;2023-07-02T01:40:07;15.95;;;9.75;;
28796;SDS011;24974;54.444;18.560;2023-07-02T01:42:40;12.27;;;10.63;;
28796;SDS011;24974;54.444;18.560;2023-07-02T01:45:11;11.48;;;10.32;;
28796;SDS011;24974;54.444;18.560;2023-07-02T01:47:41;11.00;;;9.65;;
28796;SDS011;24974;54.444;18.560;2023-07-02T01:50:13;11.27;;;9.80;;
28796;SDS011;24974;54.444;18.560;2023-07-02T01:52:44;11.45;;;10.18;;
28796;SDS011;24974;54.444;18.560;2023-07-02T01:55:15;11.27;;;9.73;;
28796;SDS011;24974;54.444;18.560;2023-07-02T01:57:48;10.43;;;9.43;;
28796;SDS011;24974;54.444;18.560;2023-07-02T02:00:18;11.35;;;9.13;;
28796;SDS011;24974;54.444;18.560;2023-07-02T02:02:49;12.27;;;8.82;;
28796;SDS011;24974;54.444;18.560;2023-07-02T02:05:21;14.75;;;9.52;;
28796;SDS011;24974;54.444;18.560;2023-07-02T02:07:54;11.07;;;8.25;;
28796;SDS011;24974;54.444;18.560;2023-07-02T02:10:25;9.20;;;7.90;;
28796;SDS011;24974;54.444;18.560;2023-07-02T02:12:56;11.02;;;8.98;;
28796;SDS011;24974;54.444;18.560;2023-07-02T02:15:27;12.30;;;8.93;;
28796;SDS011;24974;54.444;18.560;2023-07-02T02:17:57;10.50;;;8.05;;
28796;SDS011;24974;54.444;18.560;2023-07-02T02:20:28;10.45;;;7.57;;
28796;SDS011;24974;54.444;18.560;2023-07-02T02:22:59;9.57;;;8.02;;
28796;SDS011;24974;54.444;18.560;2023-07-02T02:25:30;13.25;;;8.57;;
28796;SDS011;24974;54.444;18.560;2023-07-02T02:28:01;9.75;;;8.20;;
28796;SDS011;24974;54.444;18.560;2023-07-02T02:30:32;10.35;;;8.63;;
28796;SDS011;24974;54.444;18.560;2023-07-02T02:33:02;13.77;;;8.80;;
28796;SDS011;24974;54.444;18.560;2023-07-02T02:35:34;9.68;;;8.07;;
28796;SDS011;24974;54.444;18.560;2023-07-02T02:38:06;9.85;;;8.48;;
28796;SDS011;24974;54.444;18.560;2023-07-02T02:40:37;10.48;;;7.75;;
28796;SDS011;24974;54.444;18.560;2023-07-02T02:43:11;9.38;;;7.55;;
28796;SDS011;24974;54.444;18.560;2023-07-02T02:45:42;12.27;;;8.23;;
28796;SDS011;24974;54.444;18.560;2023-07-02T02:48:13;12.10;;;7.93;;
28796;SDS011;24974;54.444;18.560;2023-07-02T02:50:44;9.20;;;7.28;;
28796;SDS011;24974;54.444;18.560;2023-07-02T02:53:16;9.35;;;7.45;;
28796;SDS011;24974;54.444;18.560;2023-07-02T02:55:47;11.27;;;7.97;;
28796;SDS011;24974;54.444;18.560;2023-07-02T02:58:17;9.35;;;7.80;;
28796;SDS011;24974;54.444;18.560;2023-07-02T03:00:48;10.27;;;7.10;;
28796;SDS011;24974;54.444;18.560;2023-07-02T03:03:19;9.23;;;8.07;;
28796;SDS011;24974;54.444;18.560;2023-07-02T03:05:50;11.40;;;7.30;;
28796;SDS011;24974;54.444;18.560;2023-07-02T03:08:21;9.07;;;7.30;;
28796;SDS011;24974;54.444;18.560;2023-07-02T03:10:52;9.55;;;6.97;;
28796;SDS011;24974;54.444;18.560;2023-07-02T03:13:23;7.32;;;6.35;;
28796;SDS011;24974;54.444;18.560;2023-07-02T03:15:54;7.80;;;6.68;;
28796;SDS011;24974;54.444;18.560;2023-07-02T03:18:25;8.98;;;7.43;;
28796;SDS011;24974;54.444;18.560;2023-07-02T03:20:55;7.55;;;6.80;;
28796;SDS011;24974;54.444;18.560;2023-07-02T03:23:26;7.85;;;7.03;;
28796;SDS011;24974;54.444;18.560;2023-07-02T03:25:57;10.23;;;7.00;;
28796;SDS011;24974;54.444;18.560;2023-07-02T03:28:28;11.02;;;7.15;;
28796;SDS011;24974;54.444;18.560;2023-07-02T03:30:59;8.30;;;7.32;;
28796;SDS011;24974;54.444;18.560;2023-07-02T03:33:30;7.00;;;6.35;;
28796;SDS011;24974;54.444;18.560;2023-07-02T03:36:02;7.68;;;6.85;;
28796;SDS011;24974;54.444;18.560;2023-07-02T03:38:33;10.80;;;6.53;;
28796;SDS011;24974;54.444;18.560;2023-07-02T03:41:04;7.03;;;5.93;;
28796;SDS011;24974;54.444;18.560;2023-07-02T03:43:35;8.65;;;6.35;;
28796;SDS011;24974;54.444;18.560;2023-07-02T03:46:05;8.43;;;7.03;;
28796;SDS011;24974;54.444;18.560;2023-07-02T03:48:36;8.25;;;6.50;;
28796;SDS011;24974;54.444;18.560;2023-07-02T03:51:07;8.05;;;5.68;;
28796;SDS011;24974;54.444;18.560;2023-07-02T03:53:38;6.70;;;6.00;;
28796;SDS011;24974;54.444;18.560;2023-07-02T03:56:09;6.88;;;5.50;;
28796;SDS011;24974;54.444;18.560;2023-07-02T03:58:40;6.75;;;6.13;;
28796;SDS011;24974;54.444;18.560;2023-07-02T04:01:11;6.25;;;5.65;;
28796;SDS011;24974;54.444;18.560;2023-07-02T04:03:47;7.13;;;6.22;;
28796;SDS011;24974;54.444;18.560;2023-07-02T04:06:19;5.72;;;5.03;;
28796;SDS011;24974;54.444;18.560;2023-07-02T04:08:50;8.02;;;5.03;;
28796;SDS011;24974;54.444;18.560;2023-07-02T04:11:21;6.63;;;5.18;;
28796;SDS011;24974;54.444;18.560;2023-07-02T04:13:51;5.25;;;4.50;;
28796;SDS011;24974;54.444;18.560;2023-07-02T04:16:22;5.30;;;4.55;;
28796;SDS011;24974;54.444;18.560;2023-07-02T04:18:53;8.18;;;4.15;;
28796;SDS011;24974;54.444;18.560;2023-07-02T04:21:24;6.28;;;4.25;;
28796;SDS011;24974;54.444;18.560;2023-07-02T04:23:55;5.10;;;3.67;;
28796;SDS011;24974;54.444;18.560;2023-07-02T04:26:25;4.15;;;3.80;;
28796;SDS011;24974;54.444;18.560;2023-07-02T04:28:57;5.68;;;3.33;;
28796;SDS011;24974;54.444;18.560;2023-07-02T04:31:29;4.35;;;3.00;;
28796;SDS011;24974;54.444;18.560;2023-07-02T04:33:59;4.55;;;3.10;;
28796;SDS011;24974;54.444;18.560;2023-07-02T04:36:31;4.03;;;3.60;;
28796;SDS011;24974;54.444;18.560;2023-07-02T04:39:02;3.47;;;3.17;;
28796;SDS011;24974;54.444;18.560;2023-07-02T04:41:32;3.55;;;3.22;;
28796;SDS011;24974;54.444;18.560;2023-07-02T04:44:03;5.55;;;3.17;;
28796;SDS011;24974;54.444;18.560;2023-07-02T04:46:34;4.15;;;3.20;;
28796;SDS011;24974;54.444;18.560;2023-07-02T04:49:05;3.97;;;3.42;;
28796;SDS011;24974;54.444;18.560;2023-07-02T04:51:35;7.80;;;2.92;;
28796;SDS011;24974;54.444;18.560;2023-07-02T04:54:06;4.38;;;3.33;;
28796;SDS011;24974;54.444;18.560;2023-07-02T04:56:37;3.63;;;3.00;;
28796;SDS011;24974;54.444;18.560;2023-07-02T04:59:08;2.95;;;2.65;;
28796;SDS011;24974;54.444;18.560;2023-07-02T05:01:39;3.53;;;3.05;;
28796;SDS011;24974;54.444;18.560;2023-07-02T05:04:10;3.20;;;2.90;;
28796;SDS011;24974;54.444;18.560;2023-07-02T05:06:41;3.50;;;2.78;;
28796;SDS011;24974;54.444;18.560;2023-07-02T05:09:12;3.35;;;2.70;;
28796;SDS011;24974;54.444;18.560;2023-07-02T05:11:43;3.53;;;2.33;;
28796;SDS011;24974;54.444;18.560;2023-07-02T05:14:14;3.20;;;2.55;;
28796;SDS011;24974;54.444;18.560;2023-07-02T05:16:44;5.43;;;2.78;;
28796;SDS011;24974;54.444;18.560;2023-07-02T05:19:15;3.53;;;2.17;;
28796;SDS011;24974;54.444;18.560;2023-07-02T05:21:46;3.45;;;2.28;;
28796;SDS011;24974;54.444;18.560;2023-07-02T05:24:17;2.30;;;2.05;;
28796;SDS011;24974;54.444;18.560;2023-07-02T05:26:48;2.45;;;2.10;;
28796;SDS011;24974;54.444;18.560;2023-07-02T05:29:20;2.72;;;1.98;;
28796;SDS011;24974;54.444;18.560;2023-07-02T05:31:51;2.20;;;2.00;;
28796;SDS011;24974;54.444;18.560;2023-07-02T05:34:22;2.33;;;1.92;;
28796;SDS011;24974;54.444;18.560;2023-07-02T05:36:52;3.78;;;2.88;;
28796;SDS011;24974;54.444;18.560;2023-07-02T05:39:23;2.97;;;2.05;;
28796;SDS011;24974;54.444;18.560;2023-07-02T05:41:54;1.98;;;1.65;;
28796;SDS011;24974;54.444;18.560;2023-07-02T05:44:25;2.00;;;1.65;;
28796;SDS011;24974;54.444;18.560;2023-07-02T05:46:56;2.60;;;1.80;;
28796;SDS011;24974;54.444;18.560;2023-07-02T05:49:26;1.67;;;1.50;;
28796;SDS011;24974;54.444;18.560;2023-07-02T05:51:57;6.00;;;1.73;;
28796;SDS011;24974;54.444;18.560;2023-07-02T05:54:28;2.58;;;1.40;;
28796;SDS011;24974;54.444;18.560;2023-07-02T05:56:59;2.00;;;1.30;;
28796;SDS011;24974;54.444;18.560;2023-07-02T05:59:29;3.67;;;1.55;;
28796;SDS011;24974;54.444;18.560;2023-07-02T06:02:00;2.75;;;1.58;;
28796;SDS011;24974;54.444;18.560;2023-07-02T06:04:31;1.60;;;1.40;;
28796;SDS011;24974;54.444;18.560;2023-07-02T06:07:02;2.25;;;1.50;;
28796;SDS011;24974;54.444;18.560;2023-07-02T06:09:33;1.30;;;1.20;;
28796;SDS011;24974;54.444;18.560;2023-07-02T06:12:04;1.80;;;1.45;;
28796;SDS011;24974;54.444;18.560;2023-07-02T06:14:35;2.60;;;1.38;;
28796;SDS011;24974;54.444;18.560;2023-07-02T06:17:07;2.40;;;1.38;;
28796;SDS011;24974;54.444;18.560;2023-07-02T06:19:38;2.35;;;1.35;;
28796;SDS011;24974;54.444;18.560;2023-07-02T06:22:09;4.75;;;1.48;;
28796;SDS011;24974;54.444;18.560;2023-07-02T06:24:40;3.40;;;1.83;;
28796;SDS011;24974;54.444;18.560;2023-07-02T06:27:11;2.67;;;1.48;;
28796;SDS011;24974;54.444;18.560;2023-07-02T06:29:42;3.22;;;2.00;;
28796;SDS011;24974;54.444;18.560;2023-07-02T06:32:12;2.25;;;1.90;;
28796;SDS011;24974;54.444;18.560;2023-07-02T06:34:43;2.35;;;2.15;;
28796;SDS011;24974;54.444;18.560;2023-07-02T06:37:14;3.58;;;1.92;;
28796;SDS011;24974;54.444;18.560;2023-07-02T06:39:45;2.00;;;1.73;;
28796;SDS011;24974;54.444;18.560;2023-07-02T06:42:16;2.00;;;1.80;;
28796;SDS011;24974;54.444;18.560;2023-07-02T06:44:48;5.05;;;2.28;;
28796;SDS011;24974;54.444;18.560;2023-07-02T06:47:19;2.50;;;1.88;;
28796;SDS011;24974;54.444;18.560;2023-07-02T06:49:51;2.80;;;2.22;;
28796;SDS011;24974;54.444;18.560;2023-07-02T06:52:22;1.60;;;1.50;;
28796;SDS011;24974;54.444;18.560;2023-07-02T06:54:53;2.50;;;1.75;;
28796;SDS011;24974;54.444;18.560;2023-07-02T06:57:24;2.80;;;1.70;;
28796;SDS011;24974;54.444;18.560;2023-07-02T06:59:58;2.00;;;1.83;;
28796;SDS011;24974;54.444;18.560;2023-07-02T07:02:29;2.22;;;1.63;;
28796;SDS011;24974;54.444;18.560;2023-07-02T07:05:00;2.47;;;2.17;;
28796;SDS011;24974;54.444;18.560;2023-07-02T07:07:31;3.38;;;1.92;;
28796;SDS011;24974;54.444;18.560;2023-07-02T07:10:02;3.63;;;2.05;;
28796;SDS011;24974;54.444;18.560;2023-07-02T07:12:34;6.60;;;2.30;;
28796;SDS011;24974;54.444;18.560;2023-07-02T07:15:05;3.97;;;1.98;;
28796;SDS011;24974;54.444;18.560;2023-07-02T07:17:35;3.78;;;1.98;;
28796;SDS011;24974;54.444;18.560;2023-07-02T07:20:06;6.55;;;2.40;;
28796;SDS011;24974;54.444;18.560;2023-07-02T07:22:37;9.52;;;2.28;;
28796;SDS011;24974;54.444;18.560;2023-07-02T07:25:08;10.85;;;2.80;;
28796;SDS011;24974;54.444;18.560;2023-07-02T07:27:40;15.60;;;2.50;;
28796;SDS011;24974;54.444;18.560;2023-07-02T07:30:11;6.88;;;2.05;;
28796;SDS011;24974;54.444;18.560;2023-07-02T07:32:42;7.75;;;2.10;;
28796;SDS011;24974;54.444;18.560;2023-07-02T07:35:13;4.82;;;2.22;;
28796;SDS011;24974;54.444;18.560;2023-07-02T07:37:44;8.18;;;2.17;;
28796;SDS011;24974;54.444;18.560;2023-07-02T07:40:15;3.05;;;1.92;;
28796;SDS011;24974;54.444;18.560;2023-07-02T07:42:46;8.20;;;2.50;;
28796;SDS011;24974;54.444;18.560;2023-07-02T07:45:16;8.13;;;2.63;;
28796;SDS011;24974;54.444;18.560;2023-07-02T07:47:47;7.57;;;2.20;;
28796;SDS011;24974;54.444;18.560;2023-07-02T07:50:18;3.00;;;1.90;;
28796;SDS011;24974;54.444;18.560;2023-07-02T07:52:48;5.40;;;2.03;;
28796;SDS011;24974;54.444;18.560;2023-07-02T07:55:19;4.22;;;2.08;;
28796;SDS011;24974;54.444;18.560;2023-07-02T07:57:50;4.47;;;2.05;;
28796;SDS011;24974;54.444;18.560;2023-07-02T08:00:21;3.92;;;1.88;;
28796;SDS011;24974;54.444;18.560;2023-07-02T08:02:54;3.50;;;1.90;;
28796;SDS011;24974;54.444;18.560;2023-07-02T08:05:26;4.22;;;1.77;;
28796;SDS011;24974;54.444;18.560;2023-07-02T08:07:57;4.05;;;1.90;;
28796;SDS011;24974;54.444;18.560;2023-07-02T08:10:28;3.72;;;1.90;;
28796;SDS011;24974;54.444;18.560;2023-07-02T08:12:59;7.20;;;2.10;;
28796;SDS011;24974;54.444;18.560;2023-07-02T08:15:29;3.88;;;2.08;;
28796;SDS011;24974;54.444;18.560;2023-07-02T08:18:00;7.63;;;2.33;;
28796;SDS011;24974;54.444;18.560;2023-07-02T08:20:31;4.82;;;2.10;;
28796;SDS011;24974;54.444;18.560;2023-07-02T08:23:02;8.88;;;2.90;;
28796;SDS011;24974;54.444;18.560;2023-07-02T08:25:33;6.78;;;2.38;;
28796;SDS011;24974;54.444;18.560;2023-07-02T08:28:03;5.45;;;2.15;;
28796;SDS011;24974;54.444;18.560;2023-07-02T08:30:34;10.50;;;2.15;;
28796;SDS011;24974;54.444;18.560;2023-07-02T08:33:05;8.15;;;3.22;;
28796;SDS011;24974;54.444;18.560;2023-07-02T08:35:35;5.72;;;2.17;;
28796;SDS011;24974;54.444;18.560;2023-07-02T08:38:06;8.38;;;2.17;;
28796;SDS011;24974;54.444;18.560;2023-07-02T08:40:38;3.70;;;1.80;;
28796;SDS011;24974;54.444;18.560;2023-07-02T08:43:09;6.93;;;2.20;;
28796;SDS011;24974;54.444;18.560;2023-07-02T08:45:41;10.65;;;2.70;;
28796;SDS011;24974;54.444;18.560;2023-07-02T08:48:12;4.15;;;2.08;;
28796;SDS011;24974;54.444;18.560;2023-07-02T08:50:44;8.07;;;2.55;;
28796;SDS011;24974;54.444;18.560;2023-07-02T08:53:15;5.03;;;2.10;;
28796;SDS011;24974;54.444;18.560;2023-07-02T08:55:46;6.47;;;2.28;;
28796;SDS011;24974;54.444;18.560;2023-07-02T08:58:18;9.27;;;2.40;;
28796;SDS011;24974;54.444;18.560;2023-07-02T09:01:03;6.65;;;2.35;;
28796;SDS011;24974;54.444;18.560;2023-07-02T09:03:40;5.55;;;2.10;;
28796;SDS011;24974;54.444;18.560;2023-07-02T09:06:11;5.60;;;2.05;;
28796;SDS011;24974;54.444;18.560;2023-07-02T09:08:43;7.70;;;2.05;;
28796;SDS011;24974;54.444;18.560;2023-07-02T09:11:14;6.30;;;1.90;;
28796;SDS011;24974;54.444;18.560;2023-07-02T09:16:30;5.18;;;2.05;;
28796;SDS011;24974;54.444;18.560;2023-07-02T09:19:08;6.03;;;2.00;;
28796;SDS011;24974;54.444;18.560;2023-07-02T09:21:41;6.43;;;1.83;;
28796;SDS011;24974;54.444;18.560;2023-07-02T09:26:45;5.00;;;1.85;;
28796;SDS011;24974;54.444;18.560;2023-07-02T09:32:03;6.32;;;1.80;;
28796;SDS011;24974;54.444;18.560;2023-07-02T09:34:38;6.57;;;2.13;;
28796;SDS011;24974;54.444;18.560;2023-07-02T09:37:11;5.93;;;2.08;;
28796;SDS011;24974;54.444;18.560;2023-07-02T09:39:42;8.73;;;2.33;;
28796;SDS011;24974;54.444;18.560;2023-07-02T09:42:14;5.00;;;2.30;;
28796;SDS011;24974;54.444;18.560;2023-07-02T09:44:45;6.10;;;2.20;;
28796;SDS011;24974;54.444;18.560;2023-07-02T09:47:17;7.05;;;2.05;;
28796;SDS011;24974;54.444;18.560;2023-07-02T09:49:52;6.25;;;2.60;;
28796;SDS011;24974;54.444;18.560;2023-07-02T09:52:26;9.05;;;2.58;;
28796;SDS011;24974;54.444;18.560;2023-07-02T09:54:57;9.85;;;2.90;;
28796;SDS011;24974;54.444;18.560;2023-07-02T09:57:28;8.02;;;2.47;;
28796;SDS011;24974;54.444;18.560;2023-07-02T10:00:01;6.90;;;2.03;;
28796;SDS011;24974;54.444;18.560;2023-07-02T10:02:36;6.25;;;2.35;;
28796;SDS011;24974;54.444;18.560;2023-07-02T10:05:07;7.93;;;2.33;;
28796;SDS011;24974;54.444;18.560;2023-07-02T10:07:38;4.97;;;1.92;;
28796;SDS011;24974;54.444;18.560;2023-07-02T10:10:08;10.70;;;2.78;;
28796;SDS011;24974;54.444;18.560;2023-07-02T10:12:45;3.95;;;2.92;;
28796;SDS011;24974;54.444;18.560;2023-07-02T10:15:24;5.75;;;2.25;;
28796;SDS011;24974;54.444;18.560;2023-07-02T10:18:00;4.93;;;2.15;;
28796;SDS011;24974;54.444;18.560;2023-07-02T10:20:37;6.93;;;2.53;;
28796;SDS011;24974;54.444;18.560;2023-07-02T10:23:11;7.40;;;2.72;;
28796;SDS011;24974;54.444;18.560;2023-07-02T10:25:42;10.35;;;2.50;;
28796;SDS011;24974;54.444;18.560;2023-07-02T10:28:17;8.27;;;3.10;;
28796;SDS011;24974;54.444;18.560;2023-07-02T10:30:52;7.20;;;2.60;;
28796;SDS011;24974;54.444;18.560;2023-07-02T10:33:24;6.40;;;2.50;;
28796;SDS011;24974;54.444;18.560;2023-07-02T10:35:54;8.98;;;3.30;;
28796;SDS011;24974;54.444;18.560;2023-07-02T10:38:25;8.43;;;2.58;;
28796;SDS011;24974;54.444;18.560;2023-07-02T10:40:59;7.35;;;2.60;;
28796;SDS011;24974;54.444;18.560;2023-07-02T10:43:31;7.97;;;2.28;;
28796;SDS011;24974;54.444;18.560;2023-07-02T10:46:02;7.57;;;2.58;;
28796;SDS011;24974;54.444;18.560;2023-07-02T10:48:33;9.55;;;2.55;;
28796;SDS011;24974;54.444;18.560;2023-07-02T10:51:13;7.90;;;2.20;;
28796;SDS011;24974;54.444;18.560;2023-07-02T10:53:43;8.07;;;2.45;;
28796;SDS011;24974;54.444;18.560;2023-07-02T10:56:17;7.03;;;2.35;;
28796;SDS011;24974;54.444;18.560;2023-07-02T10:58:48;8.05;;;2.22;;
28796;SDS011;24974;54.444;18.560;2023-07-02T11:01:25;8.55;;;2.65;;
28796;SDS011;24974;54.444;18.560;2023-07-02T11:06:30;7.35;;;2.58;;
28796;SDS011;24974;54.444;18.560;2023-07-02T11:09:02;11.48;;;3.00;;
28796;SDS011;24974;54.444;18.560;2023-07-02T11:11:34;6.78;;;2.53;;
28796;SDS011;24974;54.444;18.560;2023-07-02T11:14:05;7.75;;;2.70;;
28796;SDS011;24974;54.444;18.560;2023-07-02T11:16:35;7.78;;;2.80;;
28796;SDS011;24974;54.444;18.560;2023-07-02T11:19:10;6.07;;;3.35;;
28796;SDS011;24974;54.444;18.560;2023-07-02T11:21:49;5.75;;;2.78;;
28796;SDS011;24974;54.444;18.560;2023-07-02T11:24:27;10.02;;;2.75;;
28796;SDS011;24974;54.444;18.560;2023-07-02T11:27:05;8.52;;;2.47;;
28796;SDS011;24974;54.444;18.560;2023-07-02T11:29:36;9.57;;;3.08;;
28796;SDS011;24974;54.444;18.560;2023-07-02T11:32:09;7.35;;;2.55;;
28796;SDS011;24974;54.444;18.560;2023-07-02T11:34:42;6.55;;;2.97;;
28796;SDS011;24974;54.444;18.560;2023-07-02T11:37:23;7.13;;;2.60;;
28796;SDS011;24974;54.444;18.560;2023-07-02T11:39:54;5.90;;;2.88;;
28796;SDS011;24974;54.444;18.560;2023-07-02T11:42:25;9.40;;;3.05;;
28796;SDS011;24974;54.444;18.560;2023-07-02T11:44:59;5.70;;;2.78;;
28796;SDS011;24974;54.444;18.560;2023-07-02T11:47:30;7.00;;;3.55;;
28796;SDS011;24974;54.444;18.560;2023-07-02T11:50:01;7.57;;;3.00;;
28796;SDS011;24974;54.444;18.560;2023-07-02T11:52:32;8.23;;;2.70;;
28796;SDS011;24974;54.444;18.560;2023-07-02T11:55:03;8.65;;;3.00;;
28796;SDS011;24974;54.444;18.560;2023-07-02T11:57:34;6.03;;;2.70;;
28796;SDS011;24974;54.444;18.560;2023-07-02T12:00:05;10.20;;;3.22;;
28796;SDS011;24974;54.444;18.560;2023-07-02T12:02:38;7.82;;;3.00;;
28796;SDS011;24974;54.444;18.560;2023-07-02T12:05:09;10.23;;;2.63;;
28796;SDS011;24974;54.444;18.560;2023-07-02T12:07:40;6.85;;;2.65;;
28796;SDS011;24974;54.444;18.560;2023-07-02T12:10:11;6.03;;;2.60;;
28796;SDS011;24974;54.444;18.560;2023-07-02T12:12:41;8.48;;;2.90;;
28796;SDS011;24974;54.444;18.560;2023-07-02T12:15:12;10.82;;;3.80;;
28796;SDS011;24974;54.444;18.560;2023-07-02T12:17:43;11.25;;;4.13;;
28796;SDS011;24974;54.444;18.560;2023-07-02T12:20:14;13.10;;;3.88;;
28796;SDS011;24974;54.444;18.560;2023-07-02T12:22:45;7.70;;;3.42;;
28796;SDS011;24974;54.444;18.560;2023-07-02T12:25:16;7.93;;;3.05;;
28796;SDS011;24974;54.444;18.560;2023-07-02T12:27:47;9.00;;;3.63;;
28796;SDS011;24974;54.444;18.560;2023-07-02T12:30:17;8.63;;;3.60;;
28796;SDS011;24974;54.444;18.560;2023-07-02T12:32:49;16.05;;;3.85;;
28796;SDS011;24974;54.444;18.560;2023-07-02T12:35:20;7.15;;;3.53;;
28796;SDS011;24974;54.444;18.560;2023-07-02T12:37:51;8.60;;;3.58;;
28796;SDS011;24974;54.444;18.560;2023-07-02T12:40:23;14.95;;;3.58;;
28796;SDS011;24974;54.444;18.560;2023-07-02T12:42:54;9.25;;;3.50;;
28796;SDS011;24974;54.444;18.560;2023-07-02T12:45:25;8.40;;;3.22;;
28796;SDS011;24974;54.444;18.560;2023-07-02T12:47:55;9.23;;;3.58;;
28796;SDS011;24974;54.444;18.560;2023-07-02T12:50:26;11.32;;;3.63;;
28796;SDS011;24974;54.444;18.560;2023-07-02T12:52:57;11.60;;;3.13;;
28796;SDS011;24974;54.444;18.560;2023-07-02T12:55:28;8.43;;;3.83;;
28796;SDS011;24974;54.444;18.560;2023-07-02T12:57:59;12.32;;;4.53;;
28796;SDS011;24974;54.444;18.560;2023-07-02T13:00:29;13.15;;;3.47;;
28796;SDS011;24974;54.444;18.560;2023-07-02T13:03:00;10.45;;;3.67;;
28796;SDS011;24974;54.444;18.560;2023-07-02T13:05:31;11.30;;;3.65;;
28796;SDS011;24974;54.444;18.560;2023-07-02T13:08:02;9.35;;;3.40;;
28796;SDS011;24974;54.444;18.560;2023-07-02T13:10:33;7.78;;;3.67;;
28796;SDS011;24974;54.444;18.560;2023-07-02T13:13:04;7.45;;;3.70;;
28796;SDS011;24974;54.444;18.560;2023-07-02T13:15:35;10.13;;;3.42;;
28796;SDS011;24974;54.444;18.560;2023-07-02T13:18:05;9.35;;;3.28;;
28796;SDS011;24974;54.444;18.560;2023-07-02T13:20:36;8.68;;;3.05;;
28796;SDS011;24974;54.444;18.560;2023-07-02T13:23:07;9.50;;;3.65;;
28796;SDS011;24974;54.444;18.560;2023-07-02T13:25:38;9.35;;;3.97;;
28796;SDS011;24974;54.444;18.560;2023-07-02T13:28:09;9.40;;;3.83;;
28796;SDS011;24974;54.444;18.560;2023-07-02T13:30:39;9.68;;;3.70;;
28796;SDS011;24974;54.444;18.560;2023-07-02T13:33:10;12.45;;;4.38;;
28796;SDS011;24974;54.444;18.560;2023-07-02T13:35:41;8.77;;;3.78;;
28796;SDS011;24974;54.444;18.560;2023-07-02T13:38:14;8.65;;;3.55;;
28796;SDS011;24974;54.444;18.560;2023-07-02T13:40:45;7.15;;;3.40;;
28796;SDS011;24974;54.444;18.560;2023-07-02T13:43:16;8.70;;;3.78;;
28796;SDS011;24974;54.444;18.560;2023-07-02T13:45:46;10.13;;;3.67;;
28796;SDS011;24974;54.444;18.560;2023-07-02T13:48:17;8.75;;;3.33;;
28796;SDS011;24974;54.444;18.560;2023-07-02T13:50:48;8.68;;;3.83;;
28796;SDS011;24974;54.444;18.560;2023-07-02T13:53:19;10.45;;;3.67;;
28796;SDS011;24974;54.444;18.560;2023-07-02T13:55:50;10.02;;;3.53;;
28796;SDS011;24974;54.444;18.560;2023-07-02T13:58:22;9.43;;;4.60;;
28796;SDS011;24974;54.444;18.560;2023-07-02T14:00:53;9.13;;;3.78;;
28796;SDS011;24974;54.444;18.560;2023-07-02T14:03:23;10.35;;;5.50;;
28796;SDS011;24974;54.444;18.560;2023-07-02T14:05:54;10.15;;;3.95;;
28796;SDS011;24974;54.444;18.560;2023-07-02T14:08:25;11.38;;;4.68;;
28796;SDS011;24974;54.444;18.560;2023-07-02T14:10:55;16.92;;;5.15;;
28796;SDS011;24974;54.444;18.560;2023-07-02T14:13:26;12.55;;;4.15;;
28796;SDS011;24974;54.444;18.560;2023-07-02T14:15:57;9.13;;;4.05;;
28796;SDS011;24974;54.444;18.560;2023-07-02T14:18:28;11.82;;;4.45;;
28796;SDS011;24974;54.444;18.560;2023-07-02T14:20:59;9.23;;;4.03;;
28796;SDS011;24974;54.444;18.560;2023-07-02T14:23:32;11.95;;;4.15;;
28796;SDS011;24974;54.444;18.560;2023-07-02T14:26:02;8.15;;;4.28;;
28796;SDS011;24974;54.444;18.560;2023-07-02T14:28:33;10.45;;;4.13;;
28796;SDS011;24974;54.444;18.560;2023-07-02T14:31:04;12.48;;;4.05;;
28796;SDS011;24974;54.444;18.560;2023-07-02T14:33:36;11.23;;;3.95;;
28796;SDS011;24974;54.444;18.560;2023-07-02T14:36:08;7.50;;;3.90;;
28796;SDS011;24974;54.444;18.560;2023-07-02T14:38:39;13.07;;;4.65;;
28796;SDS011;24974;54.444;18.560;2023-07-02T14:41:09;11.52;;;4.82;;
28796;SDS011;24974;54.444;18.560;2023-07-02T14:43:41;10.35;;;4.93;;
28796;SDS011;24974;54.444;18.560;2023-07-02T14:46:12;12.27;;;5.10;;
28796;SDS011;24974;54.444;18.560;2023-07-02T14:48:43;11.80;;;4.70;;
28796;SDS011;24974;54.444;18.560;2023-07-02T14:51:14;14.70;;;4.55;;
28796;SDS011;24974;54.444;18.560;2023-07-02T14:53:44;13.02;;;5.22;;
28796;SDS011;24974;54.444;18.560;2023-07-02T14:56:16;12.68;;;4.50;;
28796;SDS011;24974;54.444;18.560;2023-07-02T14:58:48;12.57;;;5.45;;
28796;SDS011;24974;54.444;18.560;2023-07-02T15:01:19;11.57;;;5.00;;
28796;SDS011;24974;54.444;18.560;2023-07-02T15:03:50;10.18;;;4.03;;
28796;SDS011;24974;54.444;18.560;2023-07-02T15:06:21;10.35;;;4.22;;
28796;SDS011;24974;54.444;18.560;2023-07-02T15:08:52;7.78;;;3.67;;